createdAt,value
2023-04-19T00:00:10.011Z,19.15
2023-04-19T00:02:37.594Z,23.20
2023-04-19T00:05:06.461Z,17.90
2023-04-19T00:07:33.527Z,16.10
2023-04-19T00:10:00.295Z,20.25
2023-04-19T00:12:27.046Z,16.88
2023-04-19T00:14:53.789Z,26.77
2023-04-19T00:17:23.126Z,20.25
2023-04-19T00:19:51.309Z,22.63
2023-04-19T00:22:17.956Z,25.00
2023-04-19T00:24:44.567Z,23.75
2023-04-19T00:27:11.887Z,22.02
2023-04-19T00:29:40.059Z,19.25
2023-04-19T00:32:06.778Z,18.00
2023-04-19T00:34:33.408Z,19.63
2023-04-19T00:37:00.019Z,19.42
2023-04-19T00:39:26.682Z,20.63
2023-04-19T00:41:57.327Z,27.40
2023-04-19T00:44:26.033Z,20.20
2023-04-19T00:46:53.895Z,20.20
2023-04-19T00:49:23.555Z,23.15
2023-04-19T00:51:53.638Z,24.88
2023-04-19T00:54:22.139Z,16.75
2023-04-19T00:56:48.746Z,18.88
2023-04-19T00:59:16.471Z,18.20
2023-04-19T01:01:43.165Z,19.55
2023-04-19T01:04:10.031Z,19.17
2023-04-19T01:06:37.121Z,19.48
2023-04-19T01:09:05.005Z,17.77
2023-04-19T01:11:31.691Z,18.85
2023-04-19T01:14:00.045Z,20.38
2023-04-19T01:16:29.130Z,19.73
2023-04-19T01:18:56.237Z,19.95
2023-04-19T01:21:23.055Z,22.85
2023-04-19T01:23:49.708Z,26.42
2023-04-19T01:26:16.826Z,17.85
2023-04-19T01:28:43.466Z,19.67
2023-04-19T01:31:10.163Z,18.48
2023-04-19T01:33:36.805Z,24.17
2023-04-19T01:36:03.859Z,20.65
2023-04-19T01:38:30.620Z,22.08
2023-04-19T01:40:57.431Z,19.77
2023-04-19T01:43:24.093Z,19.23
2023-04-19T01:45:50.680Z,22.70
2023-04-19T01:48:17.252Z,19.80
2023-04-19T01:50:43.871Z,22.90
2023-04-19T01:53:10.591Z,22.98
2023-04-19T01:55:38.688Z,20.25
2023-04-19T01:58:05.488Z,20.65
2023-04-19T02:00:32.105Z,18.15
2023-04-19T02:02:58.982Z,16.30
2023-04-19T02:05:25.837Z,18.45
2023-04-19T02:07:52.388Z,17.38
2023-04-19T02:10:18.956Z,14.35
2023-04-19T02:12:45.594Z,21.90
2023-04-19T02:15:12.230Z,15.40
2023-04-19T02:17:39.042Z,18.95
2023-04-19T02:20:08.169Z,17.20
2023-04-19T02:22:34.962Z,20.52
2023-04-19T02:25:01.843Z,22.10
2023-04-19T02:27:29.324Z,15.52
2023-04-19T02:29:56.618Z,15.25
2023-04-19T02:32:23.263Z,17.30
2023-04-19T02:34:50.146Z,23.25
2023-04-19T02:37:18.420Z,14.05
2023-04-19T02:39:47.340Z,17.77
2023-04-19T02:42:16.052Z,15.48
2023-04-19T02:44:42.636Z,21.98
2023-04-19T02:47:09.467Z,14.25
2023-04-19T02:49:38.029Z,21.80
2023-04-19T02:52:04.900Z,15.68
2023-04-19T02:54:33.714Z,16.88
2023-04-19T02:57:01.113Z,18.23
2023-04-19T02:59:27.807Z,16.33
2023-04-19T03:01:54.547Z,17.40
2023-04-19T03:04:22.214Z,16.10
2023-04-19T03:06:48.893Z,16.23
2023-04-19T03:09:16.751Z,13.55
2023-04-19T03:11:44.255Z,13.57
2023-04-19T03:14:10.783Z,14.38
2023-04-19T03:16:38.506Z,13.05
2023-04-19T03:19:05.146Z,15.98
2023-04-19T03:21:31.788Z,16.38
2023-04-19T03:23:58.674Z,14.70
2023-04-19T03:26:25.744Z,14.38
2023-04-19T03:28:52.940Z,16.63
2023-04-19T03:31:21.114Z,14.63
2023-04-19T03:33:49.319Z,14.63
2023-04-19T03:36:16.501Z,15.38
2023-04-19T03:38:44.504Z,14.60
2023-04-19T03:41:26.980Z,13.10
2023-04-19T03:43:53.592Z,13.82
2023-04-19T03:46:20.487Z,15.70
2023-04-19T03:48:47.779Z,16.73
2023-04-19T03:51:17.893Z,13.13
2023-04-19T03:53:44.515Z,13.18
2023-04-19T03:56:11.262Z,11.93
2023-04-19T03:58:37.863Z,13.45
2023-04-19T04:01:04.529Z,12.85
2023-04-19T04:03:31.377Z,12.05
2023-04-19T04:05:58.184Z,12.05
2023-04-19T04:08:24.756Z,15.77
2023-04-19T04:10:52.978Z,13.23
2023-04-19T04:13:19.665Z,11.80
2023-04-19T04:15:46.245Z,11.63
2023-04-19T04:18:12.974Z,16.98
2023-04-19T04:20:41.391Z,11.68
2023-04-19T04:23:08.189Z,15.07
2023-04-19T04:25:37.756Z,13.75
2023-04-19T04:28:04.893Z,13.27
2023-04-19T04:30:31.532Z,10.27
2023-04-19T04:32:59.388Z,15.07
2023-04-19T04:35:27.512Z,11.68
2023-04-19T04:37:54.157Z,15.88
2023-04-19T04:40:21.548Z,14.32
2023-04-19T04:42:48.120Z,13.07
2023-04-19T04:45:18.487Z,11.38
2023-04-19T04:47:47.519Z,13.57
2023-04-19T04:50:14.648Z,13.23
2023-04-19T04:52:41.336Z,15.05
2023-04-19T04:55:09.179Z,15.85
2023-04-19T04:57:35.776Z,11.95
2023-04-19T05:00:02.596Z,15.05
2023-04-19T05:02:29.324Z,10.98
2023-04-19T05:04:56.042Z,14.50
2023-04-19T05:07:22.673Z,10.68
2023-04-19T05:09:49.399Z,10.75
2023-04-19T05:12:16.110Z,12.50
2023-04-19T05:14:42.734Z,9.98
2023-04-19T05:17:09.362Z,10.77
2023-04-19T05:19:35.954Z,10.95
2023-04-19T05:22:02.561Z,11.93
2023-04-19T05:24:29.139Z,12.00
2023-04-19T05:26:56.363Z,11.10
2023-04-19T05:29:24.102Z,17.25
2023-04-19T05:31:52.023Z,13.88
2023-04-19T05:34:21.325Z,13.55
2023-04-19T05:36:49.258Z,16.00
2023-04-19T05:39:16.070Z,11.82
2023-04-19T05:41:42.851Z,15.07
2023-04-19T05:44:09.440Z,15.60
2023-04-19T05:46:36.692Z,15.77
2023-04-19T05:49:03.386Z,14.70
2023-04-19T05:51:29.941Z,41.35
2023-04-19T05:53:57.371Z,12.98
2023-04-19T05:56:25.258Z,11.18
2023-04-19T05:58:51.929Z,12.32
2023-04-19T06:01:18.927Z,13.57
2023-04-19T06:03:45.864Z,17.08
2023-04-19T06:06:12.586Z,14.27
2023-04-19T06:08:39.162Z,12.57
2023-04-19T06:11:19.823Z,14.43
2023-04-19T06:13:51.773Z,12.35
2023-04-19T06:16:18.603Z,15.10
2023-04-19T06:18:45.560Z,14.90
2023-04-19T06:21:12.296Z,12.95
2023-04-19T06:23:41.904Z,15.32
2023-04-19T06:26:08.458Z,13.73
2023-04-19T06:28:35.064Z,18.35
2023-04-19T06:31:02.634Z,12.88
2023-04-19T06:33:29.288Z,11.88
2023-04-19T06:35:55.980Z,14.70
2023-04-19T06:38:22.625Z,14.38
2023-04-19T06:40:49.271Z,12.63
2023-04-19T06:43:15.968Z,13.57
2023-04-19T06:45:42.595Z,20.55
2023-04-19T06:48:09.647Z,15.52
2023-04-19T06:50:36.662Z,16.63
2023-04-19T06:53:04.833Z,16.17
2023-04-19T06:55:31.707Z,17.67
2023-04-19T06:57:58.653Z,14.68
2023-04-19T07:00:25.254Z,15.02
2023-04-19T07:02:52.416Z,14.60
2023-04-19T07:05:19.153Z,17.63
2023-04-19T07:07:46.924Z,16.13
2023-04-19T07:10:14.389Z,15.75
2023-04-19T07:12:41.168Z,14.45
2023-04-19T07:15:08.806Z,20.42
2023-04-19T07:17:38.281Z,18.50
2023-04-19T07:20:06.617Z,14.65
2023-04-19T07:22:33.496Z,17.88
2023-04-19T07:25:00.150Z,16.38
2023-04-19T07:27:26.837Z,19.45
2023-04-19T07:29:53.607Z,18.15
2023-04-19T07:32:21.050Z,17.77
2023-04-19T07:34:47.903Z,17.42
2023-04-19T07:37:14.608Z,16.42
2023-04-19T07:39:41.343Z,20.17
2023-04-19T07:42:08.705Z,16.77
2023-04-19T07:44:35.510Z,16.55
2023-04-19T07:47:04.112Z,16.95
2023-04-19T07:49:34.703Z,16.88
2023-04-19T07:52:02.027Z,18.60
2023-04-19T07:54:30.787Z,16.70
2023-04-19T07:56:59.189Z,15.32
2023-04-19T07:59:25.774Z,14.93
2023-04-19T08:01:52.674Z,15.98
2023-04-19T08:04:20.815Z,20.73
2023-04-19T08:06:49.388Z,17.50
2023-04-19T08:09:16.009Z,16.73
2023-04-19T08:11:43.600Z,16.63
2023-04-19T08:14:22.340Z,15.13
2023-04-19T08:17:22.144Z,19.98
2023-04-19T08:19:45.469Z,19.48
2023-04-19T08:22:12.190Z,23.25
2023-04-19T08:24:38.839Z,15.05
2023-04-19T08:27:05.743Z,15.98
2023-04-19T08:29:33.646Z,16.63
2023-04-19T08:32:00.327Z,18.73
2023-04-19T08:34:27.006Z,19.10
2023-04-19T08:37:03.425Z,14.95
2023-04-19T08:39:34.274Z,16.98
2023-04-19T08:42:21.138Z,15.38
2023-04-19T08:45:25.388Z,13.07
2023-04-19T08:47:58.764Z,15.00
2023-04-19T08:50:34.472Z,13.63
2023-04-19T08:53:24.109Z,15.73
2023-04-19T08:58:45.811Z,18.45
2023-04-19T09:01:30.502Z,14.82
2023-04-19T09:04:10.503Z,15.93
2023-04-19T09:06:48.337Z,16.83
2023-04-19T09:09:33.137Z,16.88
2023-04-19T09:12:00.585Z,13.88
2023-04-19T09:14:30.138Z,14.50
2023-04-19T09:17:17.951Z,12.15
2023-04-19T09:19:49.218Z,13.82
2023-04-19T09:22:16.636Z,14.07
2023-04-19T09:27:20.064Z,15.23
2023-04-19T09:30:00.889Z,16.15
2023-04-19T09:32:29.116Z,18.75
2023-04-19T09:34:56.714Z,14.52
2023-04-19T09:39:55.111Z,11.27
2023-04-19T09:43:05.274Z,12.38
2023-04-19T09:45:45.585Z,19.23
2023-04-19T09:48:13.275Z,14.68
2023-04-19T09:51:02.304Z,14.15
2023-04-19T09:53:36.001Z,12.15
2023-04-19T09:56:04.323Z,14.68
2023-04-19T09:58:48.976Z,9.07
2023-04-19T10:01:20.525Z,9.85
2023-04-19T10:03:50.221Z,10.75
2023-04-19T10:06:58.226Z,10.18
2023-04-19T10:12:51.625Z,12.13
2023-04-19T10:15:15.224Z,7.97
2023-04-19T10:17:49.886Z,9.73
2023-04-19T10:20:33.451Z,10.60
2023-04-19T10:23:02.734Z,12.52
2023-04-19T10:25:33.433Z,14.73
2023-04-19T10:28:00.166Z,14.50
2023-04-19T10:30:27.545Z,10.13
2023-04-19T10:32:58.914Z,11.07
2023-04-19T10:35:26.384Z,12.02
2023-04-19T10:38:07.119Z,12.93
2023-04-19T10:40:57.205Z,14.52
2023-04-19T10:43:25.345Z,10.93
2023-04-19T10:45:52.335Z,11.93
2023-04-19T10:48:55.978Z,11.63
2023-04-19T10:51:34.931Z,11.45
2023-04-19T10:54:12.119Z,13.93
2023-04-19T10:56:41.241Z,12.48
2023-04-19T10:59:08.356Z,18.50
2023-04-19T11:01:46.471Z,18.17
2023-04-19T11:04:22.228Z,9.50
2023-04-19T11:06:52.449Z,12.23
2023-04-19T11:09:26.354Z,9.70
2023-04-19T11:11:55.963Z,10.27
2023-04-19T11:14:24.407Z,11.50
2023-04-19T11:16:51.276Z,15.13
2023-04-19T11:19:20.591Z,11.32
2023-04-19T11:21:48.623Z,11.50
2023-04-19T11:24:18.813Z,13.52
2023-04-19T11:26:52.696Z,10.80
2023-04-19T11:29:21.990Z,9.35
2023-04-19T11:31:48.943Z,11.95
2023-04-19T11:34:16.007Z,12.52
2023-04-19T11:36:53.832Z,15.98
2023-04-19T11:39:22.196Z,12.80
2023-04-19T11:41:49.763Z,8.57
2023-04-19T11:44:20.404Z,13.35
2023-04-19T11:47:01.835Z,8.82
2023-04-19T11:49:30.436Z,8.63
2023-04-19T11:52:00.567Z,14.38
2023-04-19T11:54:28.260Z,14.45
2023-04-19T11:57:02.617Z,7.03
2023-04-19T11:59:31.029Z,8.68
2023-04-19T12:02:14.037Z,9.43
2023-04-19T12:04:41.858Z,11.80
2023-04-19T12:07:13.261Z,9.70
2023-04-19T12:09:39.910Z,9.07
2023-04-19T12:12:06.882Z,11.82
2023-04-19T12:14:34.268Z,8.55
2023-04-19T12:17:15.178Z,11.40
2023-04-19T12:19:48.200Z,11.30
2023-04-19T12:22:17.666Z,9.85
2023-04-19T12:24:44.378Z,10.48
2023-04-19T12:27:11.559Z,12.77
2023-04-19T12:29:38.862Z,9.80
2023-04-19T12:32:06.763Z,10.50
2023-04-19T12:34:33.512Z,11.85
2023-04-19T12:37:01.126Z,11.20
2023-04-19T12:39:28.917Z,12.15
2023-04-19T12:41:56.732Z,13.65
2023-04-19T12:44:23.798Z,12.48
2023-04-19T12:46:50.517Z,10.18
2023-04-19T12:49:22.065Z,14.48
2023-04-19T12:51:50.431Z,10.65
2023-04-19T12:54:17.381Z,9.55
2023-04-19T12:56:44.014Z,13.45
2023-04-19T12:59:11.566Z,12.90
2023-04-19T13:01:38.440Z,12.77
2023-04-19T13:04:05.613Z,11.60
2023-04-19T13:06:32.517Z,11.07
2023-04-19T13:09:01.046Z,9.77
2023-04-19T13:11:28.561Z,16.30
2023-04-19T13:13:56.435Z,12.40
2023-04-19T13:16:25.224Z,10.68
2023-04-19T13:18:54.727Z,13.23
2023-04-19T13:21:21.562Z,14.45
2023-04-19T13:23:48.423Z,9.55
2023-04-19T13:26:17.190Z,9.48
2023-04-19T13:28:44.731Z,10.68
2023-04-19T13:31:12.043Z,9.07
2023-04-19T13:33:38.966Z,16.42
2023-04-19T13:36:06.026Z,8.45
2023-04-19T13:38:32.943Z,11.68
2023-04-19T13:41:00.743Z,9.77
2023-04-19T13:43:30.970Z,12.15
2023-04-19T13:45:59.383Z,9.55
2023-04-19T13:48:30.785Z,12.63
2023-04-19T13:51:00.505Z,8.32
2023-04-19T13:53:29.330Z,12.52
2023-04-19T13:55:58.405Z,7.25
2023-04-19T13:58:25.579Z,7.93
2023-04-19T14:00:53.713Z,8.77
2023-04-19T14:03:24.809Z,9.10
2023-04-19T14:05:51.565Z,7.22
2023-04-19T14:08:18.683Z,6.85
2023-04-19T14:10:45.545Z,9.63
2023-04-19T14:13:12.817Z,7.18
2023-04-19T14:15:40.503Z,10.43
2023-04-19T14:18:07.447Z,13.90
2023-04-19T14:20:34.644Z,15.18
2023-04-19T14:23:01.733Z,11.27
2023-04-19T14:25:28.405Z,13.02
2023-04-19T14:27:56.997Z,9.55
2023-04-19T14:30:27.202Z,7.25
2023-04-19T14:32:54.538Z,7.93
2023-04-19T14:35:21.468Z,10.77
2023-04-19T14:37:48.134Z,9.90
2023-04-19T14:40:15.022Z,15.98
2023-04-19T14:42:43.433Z,9.57
2023-04-19T14:45:10.583Z,10.30
2023-04-19T14:47:37.314Z,6.13
2023-04-19T14:50:04.237Z,10.23
2023-04-19T14:52:31.135Z,10.05
2023-04-19T14:54:58.130Z,5.75
2023-04-19T14:57:25.923Z,5.72
2023-04-19T15:00:01.235Z,6.45
2023-04-19T15:02:28.411Z,6.03
2023-04-19T15:04:57.416Z,5.30
2023-04-19T15:07:24.407Z,8.77
2023-04-19T15:09:51.262Z,6.05
2023-04-19T15:12:17.981Z,7.72
2023-04-19T15:14:45.369Z,5.82
2023-04-19T15:17:12.007Z,7.45
2023-04-19T15:19:38.872Z,9.77
2023-04-19T15:22:06.304Z,5.85
2023-04-19T15:24:35.363Z,19.80
2023-04-19T15:27:03.032Z,7.63
2023-04-19T15:29:30.464Z,24.52
2023-04-19T15:31:58.664Z,8.65
2023-04-19T15:35:01.888Z,6.68
2023-04-19T15:40:50.083Z,5.07
2023-04-19T15:43:19.041Z,5.68
2023-04-19T15:45:45.698Z,5.70
2023-04-19T15:48:13.003Z,7.93
2023-04-19T15:50:41.368Z,6.20
2023-04-19T15:53:10.267Z,7.78
2023-04-19T15:55:38.411Z,5.43
2023-04-19T15:58:05.345Z,5.40
2023-04-19T16:00:32.568Z,7.60
2023-04-19T16:02:59.566Z,6.45
2023-04-19T16:05:27.052Z,7.78
2023-04-19T16:08:06.993Z,7.97
2023-04-19T16:10:34.081Z,9.50
2023-04-19T16:13:01.542Z,10.85
2023-04-19T16:15:28.391Z,10.07
2023-04-19T16:17:55.307Z,14.73
2023-04-19T16:20:22.161Z,7.80
2023-04-19T16:22:49.226Z,10.32
2023-04-19T16:25:19.084Z,9.40
2023-04-19T16:27:46.896Z,10.30
2023-04-19T16:30:16.289Z,7.38
2023-04-19T16:32:43.167Z,12.48
2023-04-19T16:35:10.736Z,7.20
2023-04-19T16:37:37.639Z,7.05
2023-04-19T16:40:11.022Z,5.93
2023-04-19T16:42:40.408Z,4.75
2023-04-19T16:45:08.174Z,8.02
2023-04-19T16:47:36.061Z,7.07
2023-04-19T16:50:06.047Z,4.70
2023-04-19T16:52:35.671Z,8.30
2023-04-19T16:55:04.408Z,5.28
2023-04-19T16:57:32.165Z,5.85
2023-04-19T16:59:59.345Z,5.28
2023-04-19T17:02:26.250Z,4.35
2023-04-19T17:04:53.886Z,6.32
2023-04-19T17:07:22.948Z,4.05
2023-04-19T17:09:51.209Z,4.75
2023-04-19T17:12:17.818Z,7.78
2023-04-19T17:14:44.463Z,7.13
2023-04-19T17:17:11.162Z,5.43
2023-04-19T17:19:37.833Z,7.82
2023-04-19T17:22:05.775Z,6.28
2023-04-19T17:24:37.258Z,7.65
2023-04-19T17:27:03.967Z,7.50
2023-04-19T17:29:30.949Z,4.97
2023-04-19T17:32:00.269Z,4.43
2023-04-19T17:34:28.316Z,6.00
2023-04-19T17:36:54.994Z,3.95
2023-04-19T17:39:21.563Z,4.82
2023-04-19T17:41:48.408Z,5.82
2023-04-19T17:44:15.332Z,6.50
2023-04-19T17:46:42.406Z,7.38
2023-04-19T17:49:09.266Z,11.85
2023-04-19T17:51:36.472Z,16.20
2023-04-19T17:54:03.154Z,7.07
2023-04-19T17:56:29.858Z,7.22
2023-04-19T17:58:56.616Z,8.45
2023-04-19T18:01:23.238Z,4.72
2023-04-19T18:03:50.099Z,10.00
2023-04-19T18:06:18.866Z,9.15
2023-04-19T18:08:46.036Z,10.07
2023-04-19T18:11:12.818Z,10.50
2023-04-19T18:13:39.444Z,8.38
2023-04-19T18:16:06.200Z,7.38
2023-04-19T18:18:33.487Z,4.43
2023-04-19T18:21:06.203Z,6.20
2023-04-19T18:23:33.415Z,7.45
2023-04-19T18:26:04.148Z,4.55
2023-04-19T18:28:31.291Z,7.93
2023-04-19T18:30:57.962Z,3.83
2023-04-19T18:33:24.766Z,4.13
2023-04-19T18:35:53.246Z,4.88
2023-04-19T18:38:20.561Z,5.85
2023-04-19T18:40:47.532Z,10.50
2023-04-19T18:43:14.176Z,11.02
2023-04-19T18:45:41.091Z,8.80
2023-04-19T18:48:07.919Z,8.25
2023-04-19T18:50:36.286Z,9.73
2023-04-19T18:53:03.459Z,6.78
2023-04-19T18:55:31.124Z,7.05
2023-04-19T18:57:57.724Z,7.28
2023-04-19T19:00:25.312Z,7.07
2023-04-19T19:02:52.904Z,4.07
2023-04-19T19:05:22.073Z,4.85
2023-04-19T19:07:48.829Z,5.15
2023-04-19T19:10:21.894Z,3.63
2023-04-19T19:12:49.883Z,5.55
2023-04-19T19:15:16.880Z,9.95
2023-04-19T19:17:49.385Z,4.28
2023-04-19T19:20:16.890Z,4.03
2023-04-19T19:22:43.696Z,4.72
2023-04-19T19:25:11.913Z,6.47
2023-04-19T19:27:38.876Z,4.03
2023-04-19T19:30:07.922Z,3.10
2023-04-19T19:32:34.748Z,10.07
2023-04-19T19:35:05.596Z,4.57
2023-04-19T19:37:36.831Z,7.93
2023-04-19T19:40:06.654Z,6.32
2023-04-19T19:42:39.448Z,15.27
2023-04-19T19:45:07.610Z,3.83
2023-04-19T19:47:35.540Z,3.83
2023-04-19T19:52:33.793Z,4.72
2023-04-19T19:55:01.021Z,3.83
2023-04-19T20:00:18.137Z,9.75
2023-04-19T20:02:54.933Z,5.05
2023-04-19T20:05:23.757Z,8.10
2023-04-19T20:08:05.693Z,4.72
2023-04-19T20:10:32.719Z,7.57
2023-04-19T20:13:01.408Z,4.38
2023-04-19T20:15:29.904Z,4.38
2023-04-19T20:17:56.612Z,6.90
2023-04-19T20:20:24.910Z,8.30
2023-04-19T20:22:52.889Z,9.13
2023-04-19T20:25:19.465Z,5.82
2023-04-19T20:27:46.353Z,4.65
2023-04-19T20:30:13.664Z,7.00
2023-04-19T20:32:42.560Z,17.98
2023-04-19T20:35:12.118Z,6.43
2023-04-19T20:37:39.939Z,10.93
2023-04-19T20:40:09.996Z,7.60
2023-04-19T20:42:36.675Z,4.43
2023-04-19T20:45:03.764Z,5.32
2023-04-19T20:47:32.110Z,4.40
2023-04-19T20:49:58.882Z,3.75
2023-04-19T20:52:25.514Z,7.30
2023-04-19T20:54:54.685Z,7.80
2023-04-19T20:57:21.309Z,5.97
2023-04-19T20:59:49.050Z,4.78
2023-04-19T21:02:16.328Z,11.60
2023-04-19T21:04:43.182Z,3.55
2023-04-19T21:07:11.110Z,3.20
2023-04-19T21:09:37.730Z,5.13
2023-04-19T21:12:04.526Z,8.50
2023-04-19T21:14:33.448Z,4.07
2023-04-19T21:17:01.308Z,8.35
2023-04-19T21:19:27.919Z,5.75
2023-04-19T21:21:54.560Z,6.60
2023-04-19T21:24:21.406Z,6.13
2023-04-19T21:26:47.969Z,4.75
2023-04-19T21:29:14.849Z,3.40
2023-04-19T21:31:41.924Z,3.90
2023-04-19T21:34:09.902Z,8.30
2023-04-19T21:36:36.473Z,10.27
2023-04-19T21:39:04.081Z,7.90
2023-04-19T21:41:30.797Z,5.82
2023-04-19T21:43:57.414Z,10.38
2023-04-19T21:46:24.178Z,6.18
2023-04-19T21:48:51.188Z,6.35
2023-04-19T21:51:18.694Z,5.47
2023-04-19T21:53:45.315Z,4.63
2023-04-19T21:56:12.810Z,6.93
2023-04-19T21:58:40.390Z,5.40
2023-04-19T22:01:07.414Z,7.00
2023-04-19T22:03:34.346Z,5.75
2023-04-19T22:06:02.071Z,5.60
2023-04-19T22:08:31.509Z,5.97
2023-04-19T22:11:00.374Z,7.15
2023-04-19T22:13:29.046Z,10.70
2023-04-19T22:15:57.277Z,7.07
2023-04-19T22:18:24.268Z,3.40
2023-04-19T22:20:53.870Z,5.07
2023-04-19T22:23:20.484Z,4.68
2023-04-19T22:25:47.694Z,4.93
2023-04-19T22:28:16.316Z,8.07
2023-04-19T22:30:43.073Z,3.72
2023-04-19T22:33:12.030Z,4.93
2023-04-19T22:35:38.559Z,6.85
2023-04-19T22:38:05.340Z,3.97
2023-04-19T22:40:31.960Z,4.13
2023-04-19T22:42:58.549Z,5.55
2023-04-19T22:45:25.125Z,9.60
2023-04-19T22:47:51.759Z,4.85
2023-04-19T22:50:18.542Z,6.45
2023-04-19T22:52:45.660Z,7.80
2023-04-19T22:55:12.291Z,3.63
2023-04-19T22:57:39.195Z,9.13
2023-04-19T23:00:08.985Z,7.03
2023-04-19T23:02:35.683Z,5.07
2023-04-19T23:05:02.346Z,7.10
2023-04-19T23:07:29.055Z,4.68
2023-04-19T23:09:56.160Z,6.90
2023-04-19T23:12:24.094Z,7.65
2023-04-19T23:14:51.014Z,8.18
2023-04-19T23:17:18.235Z,11.00
2023-04-19T23:19:44.917Z,14.45
2023-04-19T23:22:11.545Z,8.50
2023-04-19T23:24:39.952Z,7.55
2023-04-19T23:27:08.223Z,11.98
2023-04-19T23:29:34.921Z,8.52
2023-04-19T23:32:03.216Z,6.20
2023-04-19T23:34:29.797Z,9.68
2023-04-19T23:36:56.843Z,4.82
2023-04-19T23:39:24.340Z,5.38
2023-04-19T23:41:51.947Z,6.22
2023-04-19T23:44:18.594Z,5.95
2023-04-19T23:46:45.360Z,8.18
2023-04-19T23:49:12.152Z,10.75
2023-04-19T23:51:40.688Z,4.43
2023-04-19T23:54:07.232Z,8.82
2023-04-19T23:56:33.796Z,11.90
2023-04-19T23:59:00.370Z,6.30
